sensor_id;sensor_type;location;lat;lon;timestamp;P1;durP1;ratioP1;P2;durP2;ratioP2
83326;SDS011;73250;55.594;13.020;2024-02-28T00:00:24;71.07;;;58.42;;
83326;SDS011;73250;55.594;13.020;2024-02-28T00:02:51;70.97;;;58.60;;
83326;SDS011;73250;55.594;13.020;2024-02-28T00:05:17;74.80;;;61.25;;
83326;SDS011;73250;55.594;13.020;2024-02-28T00:07:44;71.05;;;59.30;;
83326;SDS011;73250;55.594;13.020;2024-02-28T00:10:12;72.28;;;59.78;;
83326;SDS011;73250;55.594;13.020;2024-02-28T00:12:39;73.88;;;59.97;;
83326;SDS011;73250;55.594;13.020;2024-02-28T00:15:06;72.15;;;60.42;;
83326;SDS011;73250;55.594;13.020;2024-02-28T00:17:37;68.50;;;57.78;;
83326;SDS011;73250;55.594;13.020;2024-02-28T00:20:05;77.45;;;64.53;;
83326;SDS011;73250;55.594;13.020;2024-02-28T00:22:32;76.15;;;61.70;;
83326;SDS011;73250;55.594;13.020;2024-02-28T00:24:59;73.72;;;60.67;;
83326;SDS011;73250;55.594;13.020;2024-02-28T00:27:26;74.18;;;60.38;;
83326;SDS011;73250;55.594;13.020;2024-02-28T00:29:53;74.47;;;62.50;;
83326;SDS011;73250;55.594;13.020;2024-02-28T00:32:19;72.57;;;61.33;;
83326;SDS011;73250;55.594;13.020;2024-02-28T00:34:48;76.93;;;63.83;;
83326;SDS011;73250;55.594;13.020;2024-02-28T00:37:15;78.13;;;62.97;;
83326;SDS011;73250;55.594;13.020;2024-02-28T00:39:42;76.18;;;62.22;;
83326;SDS011;73250;55.594;13.020;2024-02-28T00:42:09;74.53;;;60.30;;
83326;SDS011;73250;55.594;13.020;2024-02-28T00:44:36;77.53;;;63.60;;
83326;SDS011;73250;55.594;13.020;2024-02-28T00:47:03;73.68;;;61.40;;
83326;SDS011;73250;55.594;13.020;2024-02-28T00:49:29;76.13;;;60.72;;
83326;SDS011;73250;55.594;13.020;2024-02-28T00:51:58;77.32;;;61.65;;
83326;SDS011;73250;55.594;13.020;2024-02-28T00:54:24;74.63;;;63.28;;
83326;SDS011;73250;55.594;13.020;2024-02-28T00:56:51;75.65;;;61.33;;
83326;SDS011;73250;55.594;13.020;2024-02-28T00:59:18;72.22;;;60.45;;
83326;SDS011;73250;55.594;13.020;2024-02-28T01:01:44;74.90;;;61.90;;
83326;SDS011;73250;55.594;13.020;2024-02-28T01:04:11;75.00;;;62.47;;
83326;SDS011;73250;55.594;13.020;2024-02-28T01:06:38;71.70;;;59.25;;
83326;SDS011;73250;55.594;13.020;2024-02-28T01:09:06;74.88;;;61.47;;
83326;SDS011;73250;55.594;13.020;2024-02-28T01:11:32;75.18;;;62.03;;
83326;SDS011;73250;55.594;13.020;2024-02-28T01:13:59;74.63;;;60.97;;
83326;SDS011;73250;55.594;13.020;2024-02-28T01:16:26;72.72;;;60.55;;
83326;SDS011;73250;55.594;13.020;2024-02-28T01:18:53;69.85;;;59.00;;
83326;SDS011;73250;55.594;13.020;2024-02-28T01:21:19;75.45;;;62.40;;
83326;SDS011;73250;55.594;13.020;2024-02-28T01:23:46;71.38;;;59.65;;
83326;SDS011;73250;55.594;13.020;2024-02-28T01:26:14;73.32;;;59.08;;
83326;SDS011;73250;55.594;13.020;2024-02-28T01:28:41;74.18;;;59.33;;
83326;SDS011;73250;55.594;13.020;2024-02-28T01:31:08;70.72;;;58.20;;
83326;SDS011;73250;55.594;13.020;2024-02-28T01:33:35;74.90;;;62.53;;
83326;SDS011;73250;55.594;13.020;2024-02-28T01:36:02;71.95;;;58.15;;
83326;SDS011;73250;55.594;13.020;2024-02-28T01:38:31;72.88;;;59.60;;
83326;SDS011;73250;55.594;13.020;2024-02-28T01:40:58;70.88;;;58.95;;
83326;SDS011;73250;55.594;13.020;2024-02-28T01:43:26;73.32;;;59.25;;
83326;SDS011;73250;55.594;13.020;2024-02-28T01:45:53;68.63;;;58.95;;
83326;SDS011;73250;55.594;13.020;2024-02-28T01:48:19;68.93;;;58.40;;
83326;SDS011;73250;55.594;13.020;2024-02-28T01:50:46;71.55;;;60.10;;
83326;SDS011;73250;55.594;13.020;2024-02-28T01:53:13;72.05;;;60.85;;
83326;SDS011;73250;55.594;13.020;2024-02-28T01:55:40;70.05;;;58.50;;
83326;SDS011;73250;55.594;13.020;2024-02-28T01:58:08;71.85;;;59.95;;
83326;SDS011;73250;55.594;13.020;2024-02-28T02:00:39;71.07;;;58.75;;
83326;SDS011;73250;55.594;13.020;2024-02-28T02:03:06;63.80;;;55.67;;
83326;SDS011;73250;55.594;13.020;2024-02-28T02:05:32;69.78;;;57.90;;
83326;SDS011;73250;55.594;13.020;2024-02-28T02:07:59;70.72;;;59.42;;
83326;SDS011;73250;55.594;13.020;2024-02-28T02:10:27;68.20;;;57.28;;
83326;SDS011;73250;55.594;13.020;2024-02-28T02:12:54;66.47;;;56.70;;
83326;SDS011;73250;55.594;13.020;2024-02-28T02:15:21;69.32;;;57.83;;
83326;SDS011;73250;55.594;13.020;2024-02-28T02:17:49;66.57;;;56.83;;
83326;SDS011;73250;55.594;13.020;2024-02-28T02:20:16;66.15;;;57.58;;
83326;SDS011;73250;55.594;13.020;2024-02-28T02:22:47;68.50;;;58.25;;
83326;SDS011;73250;55.594;13.020;2024-02-28T02:25:13;72.78;;;59.83;;
83326;SDS011;73250;55.594;13.020;2024-02-28T02:27:40;69.95;;;56.83;;
83326;SDS011;73250;55.594;13.020;2024-02-28T02:30:07;71.00;;;58.35;;
83326;SDS011;73250;55.594;13.020;2024-02-28T02:32:34;74.00;;;60.83;;
83326;SDS011;73250;55.594;13.020;2024-02-28T02:35:01;71.70;;;60.50;;
83326;SDS011;73250;55.594;13.020;2024-02-28T02:37:28;76.07;;;60.90;;
83326;SDS011;73250;55.594;13.020;2024-02-28T02:39:56;69.50;;;58.35;;
83326;SDS011;73250;55.594;13.020;2024-02-28T02:42:23;73.53;;;60.80;;
83326;SDS011;73250;55.594;13.020;2024-02-28T02:44:48;72.65;;;61.20;;
83326;SDS011;73250;55.594;13.020;2024-02-28T02:47:15;70.95;;;58.10;;
83326;SDS011;73250;55.594;13.020;2024-02-28T02:49:42;70.57;;;59.75;;
83326;SDS011;73250;55.594;13.020;2024-02-28T02:52:09;73.50;;;62.92;;
83326;SDS011;73250;55.594;13.020;2024-02-28T02:54:36;70.75;;;58.70;;
83326;SDS011;73250;55.594;13.020;2024-02-28T02:57:04;65.68;;;56.72;;
83326;SDS011;73250;55.594;13.020;2024-02-28T02:59:31;71.20;;;58.70;;
83326;SDS011;73250;55.594;13.020;2024-02-28T03:01:57;67.32;;;58.53;;
83326;SDS011;73250;55.594;13.020;2024-02-28T03:04:24;72.75;;;58.45;;
83326;SDS011;73250;55.594;13.020;2024-02-28T03:06:51;69.68;;;59.97;;
83326;SDS011;73250;55.594;13.020;2024-02-28T03:09:17;63.58;;;54.00;;
83326;SDS011;73250;55.594;13.020;2024-02-28T03:11:44;65.03;;;56.42;;
83326;SDS011;73250;55.594;13.020;2024-02-28T03:14:12;74.53;;;60.67;;
83326;SDS011;73250;55.594;13.020;2024-02-28T03:16:40;76.22;;;62.85;;
83326;SDS011;73250;55.594;13.020;2024-02-28T03:19:07;69.72;;;57.38;;
83326;SDS011;73250;55.594;13.020;2024-02-28T03:21:34;63.83;;;55.75;;
83326;SDS011;73250;55.594;13.020;2024-02-28T03:24:01;67.53;;;56.67;;
83326;SDS011;73250;55.594;13.020;2024-02-28T03:26:28;70.75;;;58.10;;
83326;SDS011;73250;55.594;13.020;2024-02-28T03:28:55;66.63;;;56.28;;
83326;SDS011;73250;55.594;13.020;2024-02-28T03:31:23;68.78;;;57.95;;
83326;SDS011;73250;55.594;13.020;2024-02-28T03:33:50;65.43;;;55.90;;
83326;SDS011;73250;55.594;13.020;2024-02-28T03:36:16;69.63;;;57.85;;
83326;SDS011;73250;55.594;13.020;2024-02-28T03:38:43;66.47;;;56.97;;
83326;SDS011;73250;55.594;13.020;2024-02-28T03:41:10;63.90;;;55.40;;
83326;SDS011;73250;55.594;13.020;2024-02-28T03:43:37;67.30;;;58.08;;
83326;SDS011;73250;55.594;13.020;2024-02-28T03:46:03;72.65;;;59.55;;
83326;SDS011;73250;55.594;13.020;2024-02-28T03:48:31;68.78;;;57.65;;
83326;SDS011;73250;55.594;13.020;2024-02-28T03:50:58;68.28;;;60.13;;
83326;SDS011;73250;55.594;13.020;2024-02-28T03:53:25;65.95;;;56.78;;
83326;SDS011;73250;55.594;13.020;2024-02-28T03:55:51;67.43;;;56.78;;
83326;SDS011;73250;55.594;13.020;2024-02-28T03:58:19;69.95;;;59.05;;
83326;SDS011;73250;55.594;13.020;2024-02-28T04:00:45;73.00;;;60.35;;
83326;SDS011;73250;55.594;13.020;2024-02-28T04:03:12;68.93;;;58.55;;
83326;SDS011;73250;55.594;13.020;2024-02-28T04:05:41;69.07;;;57.08;;
83326;SDS011;73250;55.594;13.020;2024-02-28T04:08:08;66.63;;;57.30;;
83326;SDS011;73250;55.594;13.020;2024-02-28T04:10:34;66.65;;;55.70;;
83326;SDS011;73250;55.594;13.020;2024-02-28T04:13:01;69.43;;;58.35;;
83326;SDS011;73250;55.594;13.020;2024-02-28T04:15:30;68.68;;;56.65;;
83326;SDS011;73250;55.594;13.020;2024-02-28T04:17:57;66.93;;;57.70;;
83326;SDS011;73250;55.594;13.020;2024-02-28T04:20:23;69.80;;;57.60;;
83326;SDS011;73250;55.594;13.020;2024-02-28T04:22:52;67.45;;;57.28;;
83326;SDS011;73250;55.594;13.020;2024-02-28T04:25:18;66.80;;;56.35;;
83326;SDS011;73250;55.594;13.020;2024-02-28T04:27:45;73.00;;;60.85;;
83326;SDS011;73250;55.594;13.020;2024-02-28T04:30:12;68.57;;;57.38;;
83326;SDS011;73250;55.594;13.020;2024-02-28T04:32:39;61.97;;;54.33;;
83326;SDS011;73250;55.594;13.020;2024-02-28T04:35:06;71.40;;;58.65;;
83326;SDS011;73250;55.594;13.020;2024-02-28T04:37:33;65.28;;;55.53;;
83326;SDS011;73250;55.594;13.020;2024-02-28T04:40:02;67.93;;;58.30;;
83326;SDS011;73250;55.594;13.020;2024-02-28T04:42:29;67.80;;;56.53;;
83326;SDS011;73250;55.594;13.020;2024-02-28T04:44:56;76.22;;;62.35;;
83326;SDS011;73250;55.594;13.020;2024-02-28T04:47:22;70.72;;;59.50;;
83326;SDS011;73250;55.594;13.020;2024-02-28T04:49:49;69.93;;;57.05;;
83326;SDS011;73250;55.594;13.020;2024-02-28T04:52:16;69.47;;;58.88;;
83326;SDS011;73250;55.594;13.020;2024-02-28T04:54:42;72.18;;;59.80;;
83326;SDS011;73250;55.594;13.020;2024-02-28T04:57:11;70.85;;;57.63;;
83326;SDS011;73250;55.594;13.020;2024-02-28T04:59:38;68.70;;;57.10;;
83326;SDS011;73250;55.594;13.020;2024-02-28T05:02:04;70.18;;;57.83;;
83326;SDS011;73250;55.594;13.020;2024-02-28T05:04:31;71.50;;;59.90;;
83326;SDS011;73250;55.594;13.020;2024-02-28T05:06:58;70.53;;;56.95;;
83326;SDS011;73250;55.594;13.020;2024-02-28T05:09:25;65.22;;;54.67;;
83326;SDS011;73250;55.594;13.020;2024-02-28T05:11:51;68.10;;;57.80;;
83326;SDS011;73250;55.594;13.020;2024-02-28T05:14:19;70.93;;;58.53;;
83326;SDS011;73250;55.594;13.020;2024-02-28T05:16:46;68.95;;;58.55;;
83326;SDS011;73250;55.594;13.020;2024-02-28T05:19:13;68.30;;;59.05;;
83326;SDS011;73250;55.594;13.020;2024-02-28T05:21:42;68.40;;;57.85;;
83326;SDS011;73250;55.594;13.020;2024-02-28T05:24:09;65.07;;;55.65;;
83326;SDS011;73250;55.594;13.020;2024-02-28T05:26:36;69.50;;;56.63;;
83326;SDS011;73250;55.594;13.020;2024-02-28T05:29:04;67.07;;;56.55;;
83326;SDS011;73250;55.594;13.020;2024-02-28T05:31:33;73.50;;;60.38;;
83326;SDS011;73250;55.594;13.020;2024-02-28T05:34:00;70.90;;;60.33;;
83326;SDS011;73250;55.594;13.020;2024-02-28T05:36:27;77.05;;;60.75;;
83326;SDS011;73250;55.594;13.020;2024-02-28T05:38:55;72.25;;;58.97;;
83326;SDS011;73250;55.594;13.020;2024-02-28T05:41:23;74.00;;;60.70;;
83326;SDS011;73250;55.594;13.020;2024-02-28T05:43:51;66.10;;;56.03;;
83326;SDS011;73250;55.594;13.020;2024-02-28T05:46:18;68.25;;;57.72;;
83326;SDS011;73250;55.594;13.020;2024-02-28T05:48:48;70.47;;;59.28;;
83326;SDS011;73250;55.594;13.020;2024-02-28T05:51:15;68.15;;;57.40;;
83326;SDS011;73250;55.594;13.020;2024-02-28T05:53:42;67.78;;;58.80;;
83326;SDS011;73250;55.594;13.020;2024-02-28T05:56:09;73.25;;;59.42;;
83326;SDS011;73250;55.594;13.020;2024-02-28T05:58:39;72.75;;;60.33;;
83326;SDS011;73250;55.594;13.020;2024-02-28T06:01:06;71.70;;;59.03;;
83326;SDS011;73250;55.594;13.020;2024-02-28T06:03:34;72.40;;;60.97;;
83326;SDS011;73250;55.594;13.020;2024-02-28T06:06:02;71.97;;;59.92;;
83326;SDS011;73250;55.594;13.020;2024-02-28T06:08:31;68.55;;;57.65;;
83326;SDS011;73250;55.594;13.020;2024-02-28T06:10:58;66.78;;;56.22;;
83326;SDS011;73250;55.594;13.020;2024-02-28T06:13:25;71.80;;;60.20;;
83326;SDS011;73250;55.594;13.020;2024-02-28T06:15:53;71.85;;;59.80;;
83326;SDS011;73250;55.594;13.020;2024-02-28T06:18:19;68.68;;;56.63;;
83326;SDS011;73250;55.594;13.020;2024-02-28T06:20:47;73.50;;;61.47;;
83326;SDS011;73250;55.594;13.020;2024-02-28T06:23:18;69.15;;;58.80;;
83326;SDS011;73250;55.594;13.020;2024-02-28T06:25:44;69.55;;;58.28;;
83326;SDS011;73250;55.594;13.020;2024-02-28T06:28:11;75.03;;;61.05;;
83326;SDS011;73250;55.594;13.020;2024-02-28T06:30:38;72.93;;;60.75;;
83326;SDS011;73250;55.594;13.020;2024-02-28T06:33:05;69.43;;;56.28;;
83326;SDS011;73250;55.594;13.020;2024-02-28T06:35:36;70.45;;;59.00;;
83326;SDS011;73250;55.594;13.020;2024-02-28T06:38:03;68.97;;;57.50;;
83326;SDS011;73250;55.594;13.020;2024-02-28T06:40:31;71.00;;;58.58;;
83326;SDS011;73250;55.594;13.020;2024-02-28T06:42:58;69.75;;;58.25;;
83326;SDS011;73250;55.594;13.020;2024-02-28T06:45:25;67.57;;;58.15;;
83326;SDS011;73250;55.594;13.020;2024-02-28T06:47:52;73.32;;;59.55;;
83326;SDS011;73250;55.594;13.020;2024-02-28T06:50:19;69.47;;;58.28;;
83326;SDS011;73250;55.594;13.020;2024-02-28T06:52:45;65.40;;;55.28;;
83326;SDS011;73250;55.594;13.020;2024-02-28T06:55:12;66.30;;;57.78;;
83326;SDS011;73250;55.594;13.020;2024-02-28T06:57:41;71.43;;;59.55;;
83326;SDS011;73250;55.594;13.020;2024-02-28T07:00:09;70.63;;;60.60;;
83326;SDS011;73250;55.594;13.020;2024-02-28T07:02:37;69.47;;;59.05;;
83326;SDS011;73250;55.594;13.020;2024-02-28T07:05:04;70.50;;;58.80;;
83326;SDS011;73250;55.594;13.020;2024-02-28T07:07:31;70.82;;;57.67;;
83326;SDS011;73250;55.594;13.020;2024-02-28T07:09:59;69.50;;;57.28;;
83326;SDS011;73250;55.594;13.020;2024-02-28T07:12:25;71.90;;;59.15;;
83326;SDS011;73250;55.594;13.020;2024-02-28T07:14:53;65.13;;;55.67;;
83326;SDS011;73250;55.594;13.020;2024-02-28T07:17:21;69.40;;;58.28;;
83326;SDS011;73250;55.594;13.020;2024-02-28T07:19:48;72.28;;;58.85;;
83326;SDS011;73250;55.594;13.020;2024-02-28T07:22:15;74.82;;;61.22;;
83326;SDS011;73250;55.594;13.020;2024-02-28T07:24:43;67.28;;;56.03;;
83326;SDS011;73250;55.594;13.020;2024-02-28T07:27:10;72.00;;;61.05;;
83326;SDS011;73250;55.594;13.020;2024-02-28T07:29:36;70.80;;;59.88;;
83326;SDS011;73250;55.594;13.020;2024-02-28T07:32:05;69.47;;;57.83;;
83326;SDS011;73250;55.594;13.020;2024-02-28T07:34:32;70.80;;;58.97;;
83326;SDS011;73250;55.594;13.020;2024-02-28T07:36:59;72.03;;;59.15;;
83326;SDS011;73250;55.594;13.020;2024-02-28T07:39:26;69.88;;;58.70;;
83326;SDS011;73250;55.594;13.020;2024-02-28T07:41:53;74.97;;;61.70;;
83326;SDS011;73250;55.594;13.020;2024-02-28T07:44:19;71.30;;;59.70;;
83326;SDS011;73250;55.594;13.020;2024-02-28T07:46:46;70.63;;;58.72;;
83326;SDS011;73250;55.594;13.020;2024-02-28T07:49:14;73.13;;;59.67;;
83326;SDS011;73250;55.594;13.020;2024-02-28T07:51:41;72.68;;;59.15;;
83326;SDS011;73250;55.594;13.020;2024-02-28T07:54:08;78.15;;;64.32;;
83326;SDS011;73250;55.594;13.020;2024-02-28T07:56:34;93.45;;;76.05;;
83326;SDS011;73250;55.594;13.020;2024-02-28T07:59:01;83.18;;;62.78;;
83326;SDS011;73250;55.594;13.020;2024-02-28T08:01:28;75.97;;;62.25;;
83326;SDS011;73250;55.594;13.020;2024-02-28T08:03:55;64.25;;;52.50;;
83326;SDS011;73250;55.594;13.020;2024-02-28T08:06:23;72.63;;;57.05;;
83326;SDS011;73250;55.594;13.020;2024-02-28T08:08:50;72.97;;;57.55;;
83326;SDS011;73250;55.594;13.020;2024-02-28T08:11:17;73.40;;;57.53;;
83326;SDS011;73250;55.594;13.020;2024-02-28T08:13:44;59.75;;;49.38;;
83326;SDS011;73250;55.594;13.020;2024-02-28T08:16:11;66.63;;;52.20;;
83326;SDS011;73250;55.594;13.020;2024-02-28T08:18:37;70.82;;;56.53;;
83326;SDS011;73250;55.594;13.020;2024-02-28T08:21:04;72.25;;;54.00;;
83326;SDS011;73250;55.594;13.020;2024-02-28T08:23:32;69.32;;;51.95;;
83326;SDS011;73250;55.594;13.020;2024-02-28T08:25:59;72.18;;;54.10;;
83326;SDS011;73250;55.594;13.020;2024-02-28T08:28:26;62.13;;;47.78;;
83326;SDS011;73250;55.594;13.020;2024-02-28T08:30:52;61.47;;;46.00;;
83326;SDS011;73250;55.594;13.020;2024-02-28T08:33:19;64.40;;;47.75;;
83326;SDS011;73250;55.594;13.020;2024-02-28T08:35:46;71.53;;;55.38;;
83326;SDS011;73250;55.594;13.020;2024-02-28T08:38:15;69.95;;;52.42;;
83326;SDS011;73250;55.594;13.020;2024-02-28T08:40:43;62.83;;;48.72;;
83326;SDS011;73250;55.594;13.020;2024-02-28T08:43:10;69.75;;;54.42;;
83326;SDS011;73250;55.594;13.020;2024-02-28T08:45:37;76.38;;;55.33;;
83326;SDS011;73250;55.594;13.020;2024-02-28T08:48:04;66.00;;;51.33;;
83326;SDS011;73250;55.594;13.020;2024-02-28T08:50:31;70.60;;;52.20;;
83326;SDS011;73250;55.594;13.020;2024-02-28T08:52:58;76.03;;;58.45;;
83326;SDS011;73250;55.594;13.020;2024-02-28T08:55:25;78.75;;;59.95;;
83326;SDS011;73250;55.594;13.020;2024-02-28T08:57:54;77.05;;;58.42;;
83326;SDS011;73250;55.594;13.020;2024-02-28T09:00:21;74.85;;;54.80;;
83326;SDS011;73250;55.594;13.020;2024-02-28T09:02:48;63.55;;;49.78;;
83326;SDS011;73250;55.594;13.020;2024-02-28T09:05:15;72.47;;;56.75;;
83326;SDS011;73250;55.594;13.020;2024-02-28T09:07:42;73.57;;;54.17;;
83326;SDS011;73250;55.594;13.020;2024-02-28T09:10:09;68.68;;;51.05;;
83326;SDS011;73250;55.594;13.020;2024-02-28T09:12:37;65.03;;;50.45;;
83326;SDS011;73250;55.594;13.020;2024-02-28T09:15:05;86.25;;;61.35;;
83326;SDS011;73250;55.594;13.020;2024-02-28T09:17:32;67.93;;;50.45;;
83326;SDS011;73250;55.594;13.020;2024-02-28T09:19:59;73.50;;;54.17;;
83326;SDS011;73250;55.594;13.020;2024-02-28T09:22:26;71.25;;;54.25;;
83326;SDS011;73250;55.594;13.020;2024-02-28T09:24:53;81.10;;;59.90;;
83326;SDS011;73250;55.594;13.020;2024-02-28T09:27:20;79.57;;;57.63;;
83326;SDS011;73250;55.594;13.020;2024-02-28T09:29:47;76.22;;;57.85;;
83326;SDS011;73250;55.594;13.020;2024-02-28T09:32:15;84.07;;;64.68;;
83326;SDS011;73250;55.594;13.020;2024-02-28T09:34:43;63.33;;;48.58;;
83326;SDS011;73250;55.594;13.020;2024-02-28T09:37:10;77.75;;;58.20;;
83326;SDS011;73250;55.594;13.020;2024-02-28T09:39:37;75.00;;;57.78;;
83326;SDS011;73250;55.594;13.020;2024-02-28T09:42:05;78.47;;;58.05;;
83326;SDS011;73250;55.594;13.020;2024-02-28T09:44:33;79.95;;;64.35;;
83326;SDS011;73250;55.594;13.020;2024-02-28T09:47:00;73.03;;;56.15;;
83326;SDS011;73250;55.594;13.020;2024-02-28T09:49:29;74.70;;;58.85;;
83326;SDS011;73250;55.594;13.020;2024-02-28T09:51:58;79.82;;;52.08;;
83326;SDS011;73250;55.594;13.020;2024-02-28T09:54:25;82.32;;;62.10;;
83326;SDS011;73250;55.594;13.020;2024-02-28T09:56:52;76.43;;;57.88;;
83326;SDS011;73250;55.594;13.020;2024-02-28T09:59:19;77.85;;;57.97;;
83326;SDS011;73250;55.594;13.020;2024-02-28T10:01:47;78.28;;;58.33;;
83326;SDS011;73250;55.594;13.020;2024-02-28T10:04:19;81.50;;;57.08;;
83326;SDS011;73250;55.594;13.020;2024-02-28T10:06:48;67.30;;;53.40;;
83326;SDS011;73250;55.594;13.020;2024-02-28T10:09:15;88.80;;;68.78;;
83326;SDS011;73250;55.594;13.020;2024-02-28T10:11:41;83.45;;;64.28;;
83326;SDS011;73250;55.594;13.020;2024-02-28T10:14:09;68.70;;;55.03;;
83326;SDS011;73250;55.594;13.020;2024-02-28T10:16:36;83.63;;;58.33;;
83326;SDS011;73250;55.594;13.020;2024-02-28T10:19:04;78.15;;;58.88;;
83326;SDS011;73250;55.594;13.020;2024-02-28T10:21:31;64.43;;;47.78;;
83326;SDS011;73250;55.594;13.020;2024-02-28T10:23:59;72.72;;;55.28;;
83326;SDS011;73250;55.594;13.020;2024-02-28T10:26:26;66.80;;;51.40;;
83326;SDS011;73250;55.594;13.020;2024-02-28T10:28:55;65.70;;;52.17;;
83326;SDS011;73250;55.594;13.020;2024-02-28T10:31:21;70.13;;;54.55;;
83326;SDS011;73250;55.594;13.020;2024-02-28T10:33:48;69.18;;;54.22;;
83326;SDS011;73250;55.594;13.020;2024-02-28T10:36:16;64.70;;;50.97;;
83326;SDS011;73250;55.594;13.020;2024-02-28T10:38:43;77.55;;;56.60;;
83326;SDS011;73250;55.594;13.020;2024-02-28T10:41:11;72.32;;;55.65;;
83326;SDS011;73250;55.594;13.020;2024-02-28T10:43:39;72.68;;;53.63;;
83326;SDS011;73250;55.594;13.020;2024-02-28T10:46:07;76.28;;;56.15;;
83326;SDS011;73250;55.594;13.020;2024-02-28T10:48:35;67.18;;;50.92;;
83326;SDS011;73250;55.594;13.020;2024-02-28T10:51:02;68.80;;;52.45;;
83326;SDS011;73250;55.594;13.020;2024-02-28T10:53:31;65.53;;;50.72;;
83326;SDS011;73250;55.594;13.020;2024-02-28T10:56:02;73.72;;;52.25;;
83326;SDS011;73250;55.594;13.020;2024-02-28T10:58:33;70.97;;;52.67;;
83326;SDS011;73250;55.594;13.020;2024-02-28T11:01:02;74.68;;;54.58;;
83326;SDS011;73250;55.594;13.020;2024-02-28T11:03:29;68.68;;;51.45;;
83326;SDS011;73250;55.594;13.020;2024-02-28T11:05:57;71.82;;;55.47;;
83326;SDS011;73250;55.594;13.020;2024-02-28T11:08:24;73.68;;;54.45;;
83326;SDS011;73250;55.594;13.020;2024-02-28T11:10:54;61.60;;;47.22;;
83326;SDS011;73250;55.594;13.020;2024-02-28T11:13:22;82.10;;;59.63;;
83326;SDS011;73250;55.594;13.020;2024-02-28T11:15:50;67.50;;;52.75;;
83326;SDS011;73250;55.594;13.020;2024-02-28T11:18:17;73.40;;;54.60;;
83326;SDS011;73250;55.594;13.020;2024-02-28T11:20:44;72.93;;;55.28;;
83326;SDS011;73250;55.594;13.020;2024-02-28T11:23:13;73.00;;;55.38;;
83326;SDS011;73250;55.594;13.020;2024-02-28T11:25:40;74.05;;;54.38;;
83326;SDS011;73250;55.594;13.020;2024-02-28T11:28:07;77.45;;;58.00;;
83326;SDS011;73250;55.594;13.020;2024-02-28T11:30:34;73.75;;;57.30;;
83326;SDS011;73250;55.594;13.020;2024-02-28T11:33:03;73.22;;;55.55;;
83326;SDS011;73250;55.594;13.020;2024-02-28T11:35:32;69.15;;;52.80;;
83326;SDS011;73250;55.594;13.020;2024-02-28T11:37:58;71.93;;;55.28;;
83326;SDS011;73250;55.594;13.020;2024-02-28T11:40:25;65.72;;;50.05;;
83326;SDS011;73250;55.594;13.020;2024-02-28T11:42:52;72.35;;;51.88;;
83326;SDS011;73250;55.594;13.020;2024-02-28T11:45:20;64.07;;;49.22;;
83326;SDS011;73250;55.594;13.020;2024-02-28T11:47:47;71.00;;;54.95;;
83326;SDS011;73250;55.594;13.020;2024-02-28T11:50:15;66.82;;;48.97;;
83326;SDS011;73250;55.594;13.020;2024-02-28T11:52:43;72.50;;;54.88;;
83326;SDS011;73250;55.594;13.020;2024-02-28T11:55:10;69.07;;;52.38;;
83326;SDS011;73250;55.594;13.020;2024-02-28T11:57:37;75.13;;;57.63;;
83326;SDS011;73250;55.594;13.020;2024-02-28T12:00:06;65.68;;;52.53;;
83326;SDS011;73250;55.594;13.020;2024-02-28T12:02:34;72.40;;;54.72;;
83326;SDS011;73250;55.594;13.020;2024-02-28T12:05:01;58.47;;;45.80;;
83326;SDS011;73250;55.594;13.020;2024-02-28T12:07:30;57.85;;;45.40;;
83326;SDS011;73250;55.594;13.020;2024-02-28T12:09:57;56.80;;;45.55;;
83326;SDS011;73250;55.594;13.020;2024-02-28T12:12:23;62.78;;;49.45;;
83326;SDS011;73250;55.594;13.020;2024-02-28T12:14:50;71.35;;;54.78;;
83326;SDS011;73250;55.594;13.020;2024-02-28T12:17:17;58.63;;;44.70;;
83326;SDS011;73250;55.594;13.020;2024-02-28T12:19:44;59.95;;;45.08;;
83326;SDS011;73250;55.594;13.020;2024-02-28T12:22:11;60.10;;;46.17;;
83326;SDS011;73250;55.594;13.020;2024-02-28T12:24:39;61.92;;;48.47;;
83326;SDS011;73250;55.594;13.020;2024-02-28T12:27:05;64.85;;;49.38;;
83326;SDS011;73250;55.594;13.020;2024-02-28T12:29:32;61.58;;;47.47;;
83326;SDS011;73250;55.594;13.020;2024-02-28T12:31:59;56.80;;;44.72;;
83326;SDS011;73250;55.594;13.020;2024-02-28T12:34:26;73.22;;;53.05;;
83326;SDS011;73250;55.594;13.020;2024-02-28T12:36:52;79.45;;;60.22;;
83326;SDS011;73250;55.594;13.020;2024-02-28T12:39:19;49.22;;;37.20;;
83326;SDS011;73250;55.594;13.020;2024-02-28T12:41:48;55.83;;;42.95;;
83326;SDS011;73250;55.594;13.020;2024-02-28T12:44:15;60.55;;;44.33;;
83326;SDS011;73250;55.594;13.020;2024-02-28T12:46:42;63.30;;;49.17;;
83326;SDS011;73250;55.594;13.020;2024-02-28T12:49:09;71.28;;;52.72;;
83326;SDS011;73250;55.594;13.020;2024-02-28T12:51:36;65.60;;;49.88;;
83326;SDS011;73250;55.594;13.020;2024-02-28T12:54:04;61.65;;;41.92;;
83326;SDS011;73250;55.594;13.020;2024-02-28T12:56:31;67.30;;;49.20;;
83326;SDS011;73250;55.594;13.020;2024-02-28T12:58:59;68.50;;;54.13;;
83326;SDS011;73250;55.594;13.020;2024-02-28T13:01:26;59.00;;;43.17;;
83326;SDS011;73250;55.594;13.020;2024-02-28T13:03:54;64.47;;;50.53;;
83326;SDS011;73250;55.594;13.020;2024-02-28T13:06:20;62.55;;;46.60;;
83326;SDS011;73250;55.594;13.020;2024-02-28T13:08:47;57.13;;;44.20;;
83326;SDS011;73250;55.594;13.020;2024-02-28T13:11:17;50.80;;;38.25;;
83326;SDS011;73250;55.594;13.020;2024-02-28T13:13:45;127.97;;;53.40;;
83326;SDS011;73250;55.594;13.020;2024-02-28T13:16:13;62.88;;;45.72;;
83326;SDS011;73250;55.594;13.020;2024-02-28T13:18:39;64.35;;;44.70;;
83326;SDS011;73250;55.594;13.020;2024-02-28T13:21:06;75.40;;;49.38;;
83326;SDS011;73250;55.594;13.020;2024-02-28T13:23:33;57.28;;;41.08;;
83326;SDS011;73250;55.594;13.020;2024-02-28T13:26:00;72.68;;;55.08;;
83326;SDS011;73250;55.594;13.020;2024-02-28T13:28:26;82.60;;;57.67;;
83326;SDS011;73250;55.594;13.020;2024-02-28T13:30:55;60.45;;;45.13;;
83326;SDS011;73250;55.594;13.020;2024-02-28T13:33:23;56.75;;;42.28;;
83326;SDS011;73250;55.594;13.020;2024-02-28T13:35:50;73.65;;;50.90;;
83326;SDS011;73250;55.594;13.020;2024-02-28T13:38:18;77.50;;;53.40;;
83326;SDS011;73250;55.594;13.020;2024-02-28T13:40:46;59.22;;;38.80;;
83326;SDS011;73250;55.594;13.020;2024-02-28T13:43:13;60.40;;;42.83;;
83326;SDS011;73250;55.594;13.020;2024-02-28T13:45:40;77.13;;;50.10;;
83326;SDS011;73250;55.594;13.020;2024-02-28T13:48:14;67.50;;;45.75;;
83326;SDS011;73250;55.594;13.020;2024-02-28T13:50:44;62.58;;;40.75;;
83326;SDS011;73250;55.594;13.020;2024-02-28T13:53:11;80.65;;;48.00;;
83326;SDS011;73250;55.594;13.020;2024-02-28T13:55:38;51.35;;;35.80;;
83326;SDS011;73250;55.594;13.020;2024-02-28T13:58:05;80.60;;;46.38;;
83326;SDS011;73250;55.594;13.020;2024-02-28T14:00:33;70.72;;;45.33;;
83326;SDS011;73250;55.594;13.020;2024-02-28T14:03:03;86.03;;;55.20;;
83326;SDS011;73250;55.594;13.020;2024-02-28T14:05:31;58.67;;;40.58;;
83326;SDS011;73250;55.594;13.020;2024-02-28T14:07:59;61.67;;;44.47;;